• Join FlightAware (Why Join?)
  • Login
  • US Flag 
Trick or treat! (Boo!!) 
09:00AM EDT


 

Airport Tracker/Info


-or-


 

Live Flight TrackerFlight Track Log ✈ DAL1716 ✈ 09-May-2013 ✈ KDEN - KATL

Flight Track Log - Related Links

Times and Time Zones

All times are in EDT time to prevent confusion due to time zone crossing. See the DAL1716 flight status page for this flight to view local times or setup timezone preferences in your user account.

Time Position Orientation Groundspeed Altitude Reporting Facility
EDT Latitude Longitude Course Direction KTS MPH feet Rate Location/Type
10:12AM 39.9833 -104.6167 111° Southeast 248 285 9,200  Level Denver TRACON
10:13AM 40.0167 -104.5833 37° Northeast 269 310 10,700 1,920 Climbing Denver TRACON
10:14AM 39.6743 -104.0881 105° East  Level FlightAware Approximate
10:14AM 40.0833 -104.4667 53° Northeast 351 404 13,100  Level Denver TRACON
10:15AM 39.6310 -103.9429 113° Southeast  Level FlightAware Approximate
10:16AM 39.5870 -103.7980 108° East  Level FlightAware Approximate
10:16AM 40.0003 -104.3061 124° Southeast 352 405 17,700  Level Denver Center
10:17AM 39.5445 -103.6536 107° East  Level FlightAware Approximate
10:17AM 39.9242 -104.2119 136° Southeast 373 429 20,200  Level Denver Center
10:18AM 39.5082 -103.5052 111° Southeast  Level FlightAware Approximate
10:18AM 39.8481 -104.1150 136° Southeast 381 438 22,200  Level Denver Center
10:19AM 39.7556 -104.0014 137° Southeast 425 489 23,000 780 Climbing Denver Center
10:20AM 39.6694 -103.8911 135° Southeast 435 501 23,800 1,380 Climbing Denver Center
10:21AM 39.5850 -103.7786 134° Southeast 439 505 25,900 1,680 Climbing Denver Center
10:22AM 39.5492 -103.6394 108° East 426 490 27,300 1,440 Climbing Denver Center
10:23AM 39.5069 -103.4719 108° East 438 504 28,900 1,620 Climbing Denver Center
10:24AM 39.4689 -103.3275 109° East 441 507 30,700 1,800 Climbing Denver Center
10:25AM 39.4250 -103.1633 109° East 433 498 32,600 1,080 Climbing Denver Center
10:26AM 39.3872 -103.0233 109° East 433 498 33,000 600 Climbing Denver Center
10:27AM 39.3425 -102.8575 109° East 437 503 33,900 1,020 Climbing Denver Center
10:28AM 39.3033 -102.7119 109° East 441 507 35,100 1,140 Climbing Denver Center
10:29AM 39.2650 -102.5683 109° East 443 510 36,300 1,080 Climbing Denver Center
10:30AM 39.2200 -102.4022 109° East 441 507 37,400 720 Climbing Denver Center
10:31AM 39.1792 -102.2583 110° East 445 512 37,800 660 Climbing Denver Center
10:32AM 39.1306 -102.0836 110° East 460 529 38,800 540 Climbing Denver Center
10:33AM 39.0906 -101.9369 109° East 457 526 39,000 60 Climbing Denver Center
10:34AM 39.0489 -101.7944 111° Southeast 447 514 39,000  Level Denver Center
10:35AM 39.0006 -101.6228 110° East 455 524 39,000  Level Denver Center
10:36AM 38.9569 -101.4756 111° Southeast 459 528 39,000  Level Denver Center
10:37AM 38.9067 -101.3017 110° East 463 533 39,000  Level Denver Center
10:38AM 38.8625 -101.1525 111° Southeast 465 535 39,000  Level Denver Center
10:39AM 38.8111 -100.9783 111° Southeast 467 537 39,000  Level Denver Center
10:40AM 38.7675 -100.8294 111° Southeast 466 536 39,000  Level Denver Center
10:42AM 38.7167 -100.6578 111° Southeast 464 534 39,000  Level Denver Center
10:43AM 38.6725 -100.5114 111° Southeast 461 531 39,000  Level Denver Center
10:44AM 38.6211 -100.3403 111° Southeast 460 529 39,000  Level Denver Center
10:45AM 38.5764 -100.1931 111° Southeast 462 532 39,000  Level Denver Center
10:46AM 38.5319 -100.0461 111° Southeast 462 532 39,000  Level Denver Center
10:47AM 38.4800 -99.8767 111° Southeast 458 527 39,000  Level Denver Center
10:47AM 38.4500 -99.7783 111° Southeast 458 527 39,000  Level Kansas City Center
10:48AM 38.4036 -99.6328 112° Southeast 459 528 39,000  Level Kansas City Center
10:49AM 38.3525 -99.4686 112° Southeast 466 536 39,000  Level Kansas City Center
10:50AM 38.3039 -99.3125 112° Southeast 472 543 39,000  Level Kansas City Center
10:51AM 38.2544 -99.1564 112° Southeast 475 547 39,000  Level Kansas City Center
10:52AM 38.2050 -98.9989 112° Southeast 477 549 39,000  Level Kansas City Center
10:53AM 38.1556 -98.8419 112° Southeast 480 552 39,000  Level Kansas City Center
10:54AM 38.1053 -98.6842 112° Southeast 480 552 39,000  Level Kansas City Center
10:56AM 38.0539 -98.5272 113° Southeast 482 555 39,000  Level Kansas City Center
10:57AM 37.9950 -98.3397 112° Southeast 478 550 39,000  Level Kansas City Center
10:58AM 37.9433 -98.1839 113° Southeast 480 552 39,000  Level Kansas City Center
10:59AM 37.8950 -98.0392 113° Southeast 482 555 39,000  Level Kansas City Center
11:00AM 37.8433 -97.8839 113° Southeast 480 552 39,000  Level Kansas City Center
11:01AM 37.7833 -97.6983 112° Southeast 477 549 39,000  Level Kansas City Center
11:02AM 37.7264 -97.5378 114° Southeast 481 554 39,000  Level Kansas City Center
11:03AM 37.6672 -97.3900 117° Southeast 483 556 39,000  Level Kansas City Center
11:04AM 37.6047 -97.2414 118° Southeast 479 551 39,000  Level Kansas City Center
11:05AM 37.5436 -97.0925 117° Southeast 478 550 39,000  Level Kansas City Center
11:06AM 37.4822 -96.9444 118° Southeast 478 550 39,000  Level Kansas City Center
11:07AM 37.4200 -96.7964 118° Southeast 478 550 39,000  Level Kansas City Center
11:08AM 37.3453 -96.6203 118° Southeast 476 548 39,000  Level Kansas City Center
11:09AM 37.2828 -96.4739 118° Southeast 477 549 39,000  Level Kansas City Center
11:10AM 37.2156 -96.3139 118° Southeast 474 545 39,000  Level Kansas City Center
11:11AM 37.1531 -96.1689 118° Southeast 472 543 39,000  Level Kansas City Center
11:12AM 37.0908 -96.0250 118° Southeast 469 540 39,000  Level Kansas City Center
11:13AM 37.0281 -95.8822 119° Southeast 467 537 39,000  Level Kansas City Center
11:14AM 36.9656 -95.7389 119° Southeast 467 537 39,000  Level Kansas City Center
11:15AM 36.9031 -95.5953 119° Southeast 467 537 39,000  Level Kansas City Center
11:16AM 36.8406 -95.4525 119° Southeast 465 535 39,000  Level Kansas City Center
11:17AM 36.7769 -95.3081 119° Southeast 467 537 39,000  Level Kansas City Center
11:18AM 36.7125 -95.1622 119° Southeast 471 542 39,000  Level Kansas City Center
11:19AM 36.6339 -94.9867 119° Southeast 479 551 39,000  Level Kansas City Center
11:20AM 36.5692 -94.8417 119° Southeast 476 548 39,000  Level Kansas City Center
11:21AM 36.5036 -94.6975 119° Southeast 476 548 39,000  Level Kansas City Center
11:22AM 36.4392 -94.5528 119° Southeast 476 548 39,000  Level Kansas City Center
11:23AM 36.3742 -94.4114 120° Southeast 481 554 39,000  Level Memphis Center
11:24AM 36.3100 -94.2689 119° Southeast 476 548 39,000  Level Memphis Center
11:25AM 36.2456 -94.1244 119° Southeast 476 548 39,000  Level Memphis Center
11:26AM 36.1983 -93.9653 110° East 476 548 39,000  Level Memphis Center
11:27AM 36.1569 -93.8067 108° East 481 554 39,000  Level Memphis Center
11:28AM 36.1131 -93.6481 109° East 481 554 39,000  Level Memphis Center
11:29AM 36.0672 -93.4897 110° East 486 559 39,000  Level Memphis Center
11:30AM 36.0231 -93.3314 109° East 486 559 39,000  Level Memphis Center
11:31AM 35.9789 -93.1733 109° East 492 566 39,000  Level Memphis Center
11:32AM 35.9344 -93.0156 109° East 492 566 39,000  Level Memphis Center
11:33AM 35.8897 -92.8553 109° East 492 566 39,000  Level Memphis Center
11:34AM 35.8428 -92.6975 110° East 492 566 39,000  Level Memphis Center
11:35AM 35.7975 -92.5428 110° East 492 566 39,000  Level Memphis Center
11:36AM 35.7522 -92.3831 109° East 492 566 39,000  Level Memphis Center
11:37AM 35.7047 -92.2258 110° East 492 566 39,000  Level Memphis Center
11:38AM 35.6589 -92.0689 110° East 492 566 39,000  Level Memphis Center
11:39AM 35.6131 -91.9172 110° East 487 560 39,000  Level Memphis Center
11:40AM 35.5647 -91.7581 110° East 487 560 39,000  Level Memphis Center
11:41AM 35.5186 -91.6044 110° East 487 560 39,000  Level Memphis Center
11:42AM 35.4700 -91.4481 111° Southeast 487 560 39,000  Level Memphis Center
11:43AM 35.4253 -91.2922 109° East 487 560 39,000  Level Memphis Center
11:44AM 35.3783 -91.1414 111° Southeast 487 560 39,000 -300 Level Memphis Center
11:45AM 35.3353 -90.9958 110° East 469 540 38,500 -1,020 Descending Memphis Center
11:46AM 35.2900 -90.8556 112° Southeast 450 518 37,000 -780 Descending Memphis Center
11:47AM 35.2447 -90.7131 111° Southeast 445 512 37,000  Level Memphis Center
11:48AM 35.2053 -90.5858 111° Southeast 445 512 37,000  Level Memphis Center
11:49AM 35.1617 -90.4433 110° East 445 512 37,000  Level Memphis Center
11:50AM 35.1158 -90.3011 111° Southeast 445 512 37,000  Level Memphis Center
11:51AM 35.0739 -90.1617 110° East 445 512 37,000  Level Memphis Center
11:52AM 35.0297 -90.0222 111° Southeast 445 512 37,000  Level Memphis Center
11:53AM 35.0000 -89.8603 103° East 445 512 37,000 -300 Level Memphis Center
11:54AM 34.9764 -89.7058 101° East 451 519 36,500 -780 Descending Memphis Center
11:55AM 34.9547 -89.5514 100° East 461 531 35,500 -780 Descending Memphis Center
11:56AM 34.9306 -89.4022 101° East 448 516 35,000 -300 Descending Memphis Center
11:57AM 34.9086 -89.2631 101° East 448 516 35,000  Level Memphis Center
11:58AM 34.8864 -89.1089 100° East 458 527 35,000  Level Memphis Center
11:59AM 34.8617 -88.9550 101° East 466 536 35,000  Level Memphis Center
12:00PM 34.8389 -88.7986 100° East 473 544 35,000  Level Memphis Center
12:01PM 34.8139 -88.6394 101° East 473 544 35,000  Level Memphis Center
12:02PM 34.7864 -88.4733 101° East 466 536 35,000  Level Memphis Center
12:03PM 34.7611 -88.3169 101° East 466 536 35,000  Level Memphis Center
12:04PM 34.7353 -88.1536 101° East 478 550 35,000  Level Memphis Center
12:05PM 34.7094 -87.9925 101° East 486 559 35,000 -300 Level Memphis Center
12:06PM 34.6853 -87.8339 100° East 486 559 34,500 -720 Descending Memphis Center
12:07PM 34.6592 -87.6758 101° East 481 554 33,600 -780 Descending Memphis Center
12:08PM 34.6397 -87.5528 101° East 481 554 33,000 -300 Descending Memphis Center
12:10PM 34.5944 -87.2939 102° East 463 533 33,000  Level Atlanta Center
12:11PM 34.5631 -87.1339 103° East 463 533 33,000  Level Atlanta Center
12:12PM 34.5336 -86.9764 103° East 476 548 33,000 -60 Level Atlanta Center
12:13PM 34.5017 -86.8189 104° East 476 548 32,900 -660 Descending Atlanta Center
12:14PM 34.4719 -86.6592 103° East 471 542 31,700 -1,200 Descending Atlanta Center
12:15PM 34.4417 -86.4997 103° East 477 549 30,500 -1,260 Descending Atlanta Center
12:16PM 34.4094 -86.3375 103° East 477 549 29,200 -1,320 Descending Atlanta Center
12:17PM 34.3769 -86.1756 104° East 483 556 27,900 -1,080 Descending Atlanta Center
12:18PM 34.3442 -86.0061 103° East 495 570 27,100 -900 Descending Atlanta Center
12:19PM 34.3111 -85.8444 104° East 495 570 26,200 -900 Descending Atlanta Center
12:20PM 34.2819 -85.7006 104° East 490 564 25,400 -1,020 Descending Atlanta Center
12:21PM 34.2506 -85.5392 103° East 482 555 24,200 -2,220 Descending Atlanta Center
12:22PM 34.2169 -85.3803 104° East 482 555 21,000 -3,060 Descending Atlanta Center
12:23PM 34.1831 -85.2139 104° East 467 537 18,100 -2,700 Descending Atlanta Center
12:24PM 34.1322 -85.0778 114° Southeast 455 524 15,600 -2,100 Descending Atlanta Center
12:25PM 34.0494 -84.9714 133° Southeast 435 501 14,000 -1,200 Descending Atlanta Center
12:26PM 33.9708 -84.8756 135° Southeast 416 479 13,300 -960 Descending Atlanta Center
12:27PM 33.8964 -84.7822 134° Southeast 399 459 12,100 -660 Descending Atlanta Center
12:28PM 33.8322 -84.7014 134° Southeast 356 410 12,000 -60 Descending Atlanta Center
12:29PM 33.7833 -84.6333 131° Southeast 264 304 12,000 -60 Level Atlanta TRACON
12:30PM 33.7333 -84.5667 132° Southeast 267 307 11,900 -600 Descending Atlanta TRACON
12:31PM 33.7333 -84.4667 90° East 266 306 10,800 -1,260 Descending Atlanta TRACON
12:32PM 33.7333 -84.3833 90° East 265 305 9,400 -1,680 Descending Atlanta TRACON
12:33PM 33.7333 -84.3000 90° East 237 273 7,500 -1,980 Descending Atlanta TRACON
12:34PM 33.7333 -84.2333 90° East 231 266 5,500 -1,500 Descending Atlanta TRACON
12:35PM 33.7167 -84.1667 107° East 239 275 4,600 -780 Descending Atlanta TRACON
12:36PM 33.6667 -84.1667 180° South 200 230 4,000 -360 Descending Atlanta TRACON
12:37PM 33.6500 -84.2333 253° West 165 190 3,900 -480 Descending Atlanta TRACON
12:38PM 33.6500 -84.2833 270° West 172 198 3,000 -840 Descending Atlanta TRACON